sensor_id;sensor_type;location;lat;lon;timestamp;P1;durP1;ratioP1;P2;durP2;ratioP2
16520;SDS011;8373;48.110;11.522;2023-02-01T00:02:12;22.37;;;7.73;;
16520;SDS011;8373;48.110;11.522;2023-02-01T00:04:39;14.40;;;6.87;;
16520;SDS011;8373;48.110;11.522;2023-02-01T00:07:06;17.37;;;8.20;;
16520;SDS011;8373;48.110;11.522;2023-02-01T00:09:33;17.23;;;6.70;;
16520;SDS011;8373;48.110;11.522;2023-02-01T00:12:00;25.67;;;7.53;;
16520;SDS011;8373;48.110;11.522;2023-02-01T00:14:30;16.13;;;7.33;;
16520;SDS011;8373;48.110;11.522;2023-02-01T00:17:03;20.27;;;7.23;;
16520;SDS011;8373;48.110;11.522;2023-02-01T00:19:31;16.03;;;6.87;;
16520;SDS011;8373;48.110;11.522;2023-02-01T00:21:58;16.40;;;7.13;;
16520;SDS011;8373;48.110;11.522;2023-02-01T00:24:25;14.87;;;6.67;;
16520;SDS011;8373;48.110;11.522;2023-02-01T00:26:52;16.43;;;6.90;;
16520;SDS011;8373;48.110;11.522;2023-02-01T00:29:19;15.60;;;7.07;;
16520;SDS011;8373;48.110;11.522;2023-02-01T00:31:49;11.73;;;6.73;;
16520;SDS011;8373;48.110;11.522;2023-02-01T00:34:16;14.80;;;6.00;;
16520;SDS011;8373;48.110;11.522;2023-02-01T00:36:44;15.87;;;6.07;;
16520;SDS011;8373;48.110;11.522;2023-02-01T00:39:12;14.37;;;6.60;;
16520;SDS011;8373;48.110;11.522;2023-02-01T00:41:39;15.20;;;7.03;;
16520;SDS011;8373;48.110;11.522;2023-02-01T00:44:06;16.10;;;6.57;;
16520;SDS011;8373;48.110;11.522;2023-02-01T00:46:33;14.53;;;7.20;;
16520;SDS011;8373;48.110;11.522;2023-02-01T00:49:02;18.27;;;7.03;;
16520;SDS011;8373;48.110;11.522;2023-02-01T00:51:29;18.53;;;7.77;;
16520;SDS011;8373;48.110;11.522;2023-02-01T00:53:56;15.23;;;7.00;;
16520;SDS011;8373;48.110;11.522;2023-02-01T00:56:23;20.33;;;7.40;;
16520;SDS011;8373;48.110;11.522;2023-02-01T00:58:52;15.80;;;8.40;;
16520;SDS011;8373;48.110;11.522;2023-02-01T01:01:20;22.13;;;9.80;;
16520;SDS011;8373;48.110;11.522;2023-02-01T01:03:49;16.37;;;7.77;;
16520;SDS011;8373;48.110;11.522;2023-02-01T01:06:19;19.63;;;9.30;;
16520;SDS011;8373;48.110;11.522;2023-02-01T01:08:47;18.97;;;9.37;;
16520;SDS011;8373;48.110;11.522;2023-02-01T01:11:16;19.30;;;8.13;;
16520;SDS011;8373;48.110;11.522;2023-02-01T01:13:45;19.80;;;8.70;;
16520;SDS011;8373;48.110;11.522;2023-02-01T01:16:15;17.33;;;8.20;;
16520;SDS011;8373;48.110;11.522;2023-02-01T01:18:43;17.93;;;9.13;;
16520;SDS011;8373;48.110;11.522;2023-02-01T01:21:11;19.40;;;9.70;;
16520;SDS011;8373;48.110;11.522;2023-02-01T01:23:41;20.83;;;8.70;;
16520;SDS011;8373;48.110;11.522;2023-02-01T01:26:15;24.67;;;9.20;;
16520;SDS011;8373;48.110;11.522;2023-02-01T01:28:43;20.97;;;9.73;;
16520;SDS011;8373;48.110;11.522;2023-02-01T01:31:11;18.07;;;8.67;;
16520;SDS011;8373;48.110;11.522;2023-02-01T01:33:39;19.20;;;9.27;;
16520;SDS011;8373;48.110;11.522;2023-02-01T01:36:09;19.80;;;9.50;;
16520;SDS011;8373;48.110;11.522;2023-02-01T01:38:37;20.93;;;9.87;;
16520;SDS011;8373;48.110;11.522;2023-02-01T01:41:05;18.70;;;9.13;;
16520;SDS011;8373;48.110;11.522;2023-02-01T01:43:52;32.13;;;10.27;;
16520;SDS011;8373;48.110;11.522;2023-02-01T01:46:21;28.60;;;9.40;;
16520;SDS011;8373;48.110;11.522;2023-02-01T01:48:51;24.20;;;10.57;;
16520;SDS011;8373;48.110;11.522;2023-02-01T01:51:23;24.20;;;10.33;;
16520;SDS011;8373;48.110;11.522;2023-02-01T01:53:54;25.90;;;9.80;;
16520;SDS011;8373;48.110;11.522;2023-02-01T01:56:27;20.43;;;9.87;;
16520;SDS011;8373;48.110;11.522;2023-02-01T01:58:57;23.77;;;10.77;;
16520;SDS011;8373;48.110;11.522;2023-02-01T02:01:24;26.13;;;10.40;;
16520;SDS011;8373;48.110;11.522;2023-02-01T02:03:52;22.50;;;10.13;;
16520;SDS011;8373;48.110;11.522;2023-02-01T02:06:24;26.23;;;12.07;;
16520;SDS011;8373;48.110;11.522;2023-02-01T02:08:59;28.53;;;12.40;;
16520;SDS011;8373;48.110;11.522;2023-02-01T02:11:28;25.57;;;12.83;;
16520;SDS011;8373;48.110;11.522;2023-02-01T02:13:55;21.83;;;11.67;;
16520;SDS011;8373;48.110;11.522;2023-02-01T02:16:26;24.87;;;12.43;;
16520;SDS011;8373;48.110;11.522;2023-02-01T02:19:18;25.33;;;10.90;;
16520;SDS011;8373;48.110;11.522;2023-02-01T02:22:09;23.47;;;10.30;;
16520;SDS011;8373;48.110;11.522;2023-02-01T02:24:57;29.17;;;11.83;;
16520;SDS011;8373;48.110;11.522;2023-02-01T02:27:43;33.20;;;9.73;;
16520;SDS011;8373;48.110;11.522;2023-02-01T02:33:30;28.73;;;10.33;;
16520;SDS011;8373;48.110;11.522;2023-02-01T02:36:14;22.70;;;11.57;;
16520;SDS011;8373;48.110;11.522;2023-02-01T02:38:47;23.70;;;11.53;;
16520;SDS011;8373;48.110;11.522;2023-02-01T02:41:23;23.30;;;10.33;;
16520;SDS011;8373;48.110;11.522;2023-02-01T02:44:16;21.43;;;11.20;;
16520;SDS011;8373;48.110;11.522;2023-02-01T02:47:09;25.57;;;11.20;;
16520;SDS011;8373;48.110;11.522;2023-02-01T02:49:52;24.70;;;10.20;;
16520;SDS011;8373;48.110;11.522;2023-02-01T02:52:42;21.13;;;10.23;;
16520;SDS011;8373;48.110;11.522;2023-02-01T02:55:30;22.10;;;9.10;;
16520;SDS011;8373;48.110;11.522;2023-02-01T02:58:01;24.03;;;9.40;;
16520;SDS011;8373;48.110;11.522;2023-02-01T03:00:48;20.80;;;10.07;;
16520;SDS011;8373;48.110;11.522;2023-02-01T03:03:35;21.37;;;9.70;;
16520;SDS011;8373;48.110;11.522;2023-02-01T03:06:22;21.07;;;9.53;;
16520;SDS011;8373;48.110;11.522;2023-02-01T03:08:50;24.10;;;10.00;;
16520;SDS011;8373;48.110;11.522;2023-02-01T03:11:19;30.77;;;12.17;;
16520;SDS011;8373;48.110;11.522;2023-02-01T03:13:48;26.13;;;10.87;;
16520;SDS011;8373;48.110;11.522;2023-02-01T03:16:18;23.90;;;9.20;;
16520;SDS011;8373;48.110;11.522;2023-02-01T03:18:52;20.73;;;9.57;;
16520;SDS011;8373;48.110;11.522;2023-02-01T03:21:26;20.23;;;9.60;;
16520;SDS011;8373;48.110;11.522;2023-02-01T03:23:59;22.43;;;10.33;;
16520;SDS011;8373;48.110;11.522;2023-02-01T03:26:29;22.07;;;10.80;;
16520;SDS011;8373;48.110;11.522;2023-02-01T03:29:00;21.10;;;11.03;;
16520;SDS011;8373;48.110;11.522;2023-02-01T03:31:33;25.87;;;10.40;;
16520;SDS011;8373;48.110;11.522;2023-02-01T03:34:01;17.40;;;9.30;;
16520;SDS011;8373;48.110;11.522;2023-02-01T03:36:30;19.90;;;9.60;;
16520;SDS011;8373;48.110;11.522;2023-02-01T03:39:02;22.80;;;9.97;;
16520;SDS011;8373;48.110;11.522;2023-02-01T03:41:35;18.53;;;9.70;;
16520;SDS011;8373;48.110;11.522;2023-02-01T03:44:08;23.57;;;9.87;;
16520;SDS011;8373;48.110;11.522;2023-02-01T03:46:41;19.53;;;8.60;;
16520;SDS011;8373;48.110;11.522;2023-02-01T03:49:12;24.20;;;8.90;;
16520;SDS011;8373;48.110;11.522;2023-02-01T03:51:44;18.90;;;8.80;;
16520;SDS011;8373;48.110;11.522;2023-02-01T03:54:12;24.63;;;8.97;;
16520;SDS011;8373;48.110;11.522;2023-02-01T03:56:42;26.73;;;9.60;;
16520;SDS011;8373;48.110;11.522;2023-02-01T03:59:10;19.10;;;8.70;;
16520;SDS011;8373;48.110;11.522;2023-02-01T04:01:38;18.57;;;8.90;;
16520;SDS011;8373;48.110;11.522;2023-02-01T04:04:05;22.67;;;9.13;;
16520;SDS011;8373;48.110;11.522;2023-02-01T04:06:34;21.93;;;9.43;;
16520;SDS011;8373;48.110;11.522;2023-02-01T04:09:06;24.27;;;9.47;;
16520;SDS011;8373;48.110;11.522;2023-02-01T04:11:32;19.23;;;9.00;;
16520;SDS011;8373;48.110;11.522;2023-02-01T04:13:59;19.57;;;9.47;;
16520;SDS011;8373;48.110;11.522;2023-02-01T04:16:29;16.33;;;8.20;;
16520;SDS011;8373;48.110;11.522;2023-02-01T04:18:56;18.40;;;10.13;;
16520;SDS011;8373;48.110;11.522;2023-02-01T04:21:23;19.10;;;9.20;;
16520;SDS011;8373;48.110;11.522;2023-02-01T04:23:51;20.33;;;9.83;;
16520;SDS011;8373;48.110;11.522;2023-02-01T04:26:20;18.63;;;9.10;;
16520;SDS011;8373;48.110;11.522;2023-02-01T04:28:47;19.83;;;9.50;;
16520;SDS011;8373;48.110;11.522;2023-02-01T04:31:14;21.17;;;9.67;;
16520;SDS011;8373;48.110;11.522;2023-02-01T04:33:41;19.10;;;8.63;;
16520;SDS011;8373;48.110;11.522;2023-02-01T04:36:09;23.10;;;9.70;;
16520;SDS011;8373;48.110;11.522;2023-02-01T04:38:36;21.50;;;9.40;;
16520;SDS011;8373;48.110;11.522;2023-02-01T04:41:03;24.03;;;10.00;;
16520;SDS011;8373;48.110;11.522;2023-02-01T04:43:32;20.77;;;9.60;;
16520;SDS011;8373;48.110;11.522;2023-02-01T04:45:59;24.50;;;10.10;;
16520;SDS011;8373;48.110;11.522;2023-02-01T04:48:26;21.03;;;9.63;;
16520;SDS011;8373;48.110;11.522;2023-02-01T04:50:53;22.03;;;9.17;;
16520;SDS011;8373;48.110;11.522;2023-02-01T04:53:19;19.53;;;9.60;;
16520;SDS011;8373;48.110;11.522;2023-02-01T04:55:47;26.80;;;10.20;;
16520;SDS011;8373;48.110;11.522;2023-02-01T04:58:15;19.87;;;9.40;;
16520;SDS011;8373;48.110;11.522;2023-02-01T05:00:43;24.37;;;11.43;;
16520;SDS011;8373;48.110;11.522;2023-02-01T05:03:10;23.67;;;10.50;;
16520;SDS011;8373;48.110;11.522;2023-02-01T05:05:37;21.10;;;10.87;;
16520;SDS011;8373;48.110;11.522;2023-02-01T05:08:04;21.97;;;10.37;;
16520;SDS011;8373;48.110;11.522;2023-02-01T05:10:31;25.17;;;9.63;;
16520;SDS011;8373;48.110;11.522;2023-02-01T05:12:58;26.77;;;11.70;;
16520;SDS011;8373;48.110;11.522;2023-02-01T05:15:44;21.50;;;10.53;;
16520;SDS011;8373;48.110;11.522;2023-02-01T05:18:11;22.77;;;10.30;;
16520;SDS011;8373;48.110;11.522;2023-02-01T05:20:38;25.30;;;9.33;;
16520;SDS011;8373;48.110;11.522;2023-02-01T05:23:05;20.73;;;9.27;;
16520;SDS011;8373;48.110;11.522;2023-02-01T05:25:32;30.67;;;10.60;;
16520;SDS011;8373;48.110;11.522;2023-02-01T05:27:59;23.20;;;10.20;;
16520;SDS011;8373;48.110;11.522;2023-02-01T05:30:26;24.23;;;10.50;;
16520;SDS011;8373;48.110;11.522;2023-02-01T05:32:55;21.77;;;9.60;;
16520;SDS011;8373;48.110;11.522;2023-02-01T05:35:22;28.60;;;10.63;;
16520;SDS011;8373;48.110;11.522;2023-02-01T05:37:49;23.47;;;10.60;;
16520;SDS011;8373;48.110;11.522;2023-02-01T05:40:16;22.17;;;11.90;;
16520;SDS011;8373;48.110;11.522;2023-02-01T05:42:43;24.47;;;9.93;;
16520;SDS011;8373;48.110;11.522;2023-02-01T05:45:10;26.33;;;10.83;;
16520;SDS011;8373;48.110;11.522;2023-02-01T05:47:37;30.40;;;11.40;;
16520;SDS011;8373;48.110;11.522;2023-02-01T05:50:07;60.97;;;22.73;;
16520;SDS011;8373;48.110;11.522;2023-02-01T05:52:35;29.43;;;10.33;;
16520;SDS011;8373;48.110;11.522;2023-02-01T05:55:02;23.37;;;10.00;;
16520;SDS011;8373;48.110;11.522;2023-02-01T05:57:29;25.43;;;9.10;;
16520;SDS011;8373;48.110;11.522;2023-02-01T05:59:56;24.97;;;10.57;;
16520;SDS011;8373;48.110;11.522;2023-02-01T06:02:23;20.80;;;10.43;;
16520;SDS011;8373;48.110;11.522;2023-02-01T06:04:50;23.97;;;10.10;;
16520;SDS011;8373;48.110;11.522;2023-02-01T06:07:18;22.83;;;11.03;;
16520;SDS011;8373;48.110;11.522;2023-02-01T06:09:45;23.67;;;9.43;;
16520;SDS011;8373;48.110;11.522;2023-02-01T06:12:12;21.10;;;10.10;;
16520;SDS011;8373;48.110;11.522;2023-02-01T06:14:39;27.40;;;9.77;;
16520;SDS011;8373;48.110;11.522;2023-02-01T06:17:08;22.27;;;10.17;;
16520;SDS011;8373;48.110;11.522;2023-02-01T06:19:35;24.50;;;10.60;;
16520;SDS011;8373;48.110;11.522;2023-02-01T06:22:02;22.50;;;10.13;;
16520;SDS011;8373;48.110;11.522;2023-02-01T06:24:32;25.67;;;10.20;;
16520;SDS011;8373;48.110;11.522;2023-02-01T06:26:59;25.77;;;10.50;;
16520;SDS011;8373;48.110;11.522;2023-02-01T06:29:26;28.17;;;11.23;;
16520;SDS011;8373;48.110;11.522;2023-02-01T06:31:53;23.37;;;11.17;;
16520;SDS011;8373;48.110;11.522;2023-02-01T06:34:20;21.93;;;10.33;;
16520;SDS011;8373;48.110;11.522;2023-02-01T06:36:48;25.10;;;10.93;;
16520;SDS011;8373;48.110;11.522;2023-02-01T06:39:15;24.53;;;9.97;;
16520;SDS011;8373;48.110;11.522;2023-02-01T06:41:45;25.67;;;9.87;;
16520;SDS011;8373;48.110;11.522;2023-02-01T06:44:12;26.27;;;10.70;;
16520;SDS011;8373;48.110;11.522;2023-02-01T06:46:39;28.03;;;10.17;;
16520;SDS011;8373;48.110;11.522;2023-02-01T06:49:06;26.70;;;10.37;;
16520;SDS011;8373;48.110;11.522;2023-02-01T06:51:33;29.73;;;8.90;;
16520;SDS011;8373;48.110;11.522;2023-02-01T06:54:00;25.33;;;9.43;;
16520;SDS011;8373;48.110;11.522;2023-02-01T06:56:27;26.97;;;9.30;;
16520;SDS011;8373;48.110;11.522;2023-02-01T06:58:57;27.00;;;10.53;;
16520;SDS011;8373;48.110;11.522;2023-02-01T07:01:25;19.93;;;9.00;;
16520;SDS011;8373;48.110;11.522;2023-02-01T07:03:52;15.70;;;7.93;;
16520;SDS011;8373;48.110;11.522;2023-02-01T07:06:19;24.07;;;9.03;;
16520;SDS011;8373;48.110;11.522;2023-02-01T07:08:46;19.07;;;8.07;;
16520;SDS011;8373;48.110;11.522;2023-02-01T07:11:14;18.40;;;8.63;;
16520;SDS011;8373;48.110;11.522;2023-02-01T07:13:42;20.00;;;8.20;;
16520;SDS011;8373;48.110;11.522;2023-02-01T07:16:11;24.33;;;7.97;;
16520;SDS011;8373;48.110;11.522;2023-02-01T07:18:40;22.93;;;8.80;;
16520;SDS011;8373;48.110;11.522;2023-02-01T07:21:07;18.07;;;9.00;;
16520;SDS011;8373;48.110;11.522;2023-02-01T07:23:34;18.33;;;8.40;;
16520;SDS011;8373;48.110;11.522;2023-02-01T07:26:02;14.50;;;8.13;;
16520;SDS011;8373;48.110;11.522;2023-02-01T07:28:30;23.90;;;9.67;;
16520;SDS011;8373;48.110;11.522;2023-02-01T07:31:01;17.20;;;7.80;;
16520;SDS011;8373;48.110;11.522;2023-02-01T07:33:30;17.37;;;7.90;;
16520;SDS011;8373;48.110;11.522;2023-02-01T07:35:57;19.80;;;8.60;;
16520;SDS011;8373;48.110;11.522;2023-02-01T07:38:27;19.80;;;7.53;;
16520;SDS011;8373;48.110;11.522;2023-02-01T07:40:56;14.87;;;6.93;;
16520;SDS011;8373;48.110;11.522;2023-02-01T07:43:24;20.47;;;7.40;;
16520;SDS011;8373;48.110;11.522;2023-02-01T07:45:52;16.60;;;7.40;;
16520;SDS011;8373;48.110;11.522;2023-02-01T07:48:19;16.37;;;7.60;;
16520;SDS011;8373;48.110;11.522;2023-02-01T07:50:48;21.20;;;7.50;;
16520;SDS011;8373;48.110;11.522;2023-02-01T07:53:23;15.33;;;7.50;;
16520;SDS011;8373;48.110;11.522;2023-02-01T07:55:50;18.33;;;7.10;;
16520;SDS011;8373;48.110;11.522;2023-02-01T07:58:17;18.43;;;8.23;;
16520;SDS011;8373;48.110;11.522;2023-02-01T08:00:44;19.53;;;8.60;;
16520;SDS011;8373;48.110;11.522;2023-02-01T08:03:28;13.63;;;6.17;;
16520;SDS011;8373;48.110;11.522;2023-02-01T08:05:57;14.70;;;6.70;;
16520;SDS011;8373;48.110;11.522;2023-02-01T08:08:24;14.90;;;6.30;;
16520;SDS011;8373;48.110;11.522;2023-02-01T08:10:51;14.73;;;6.57;;
16520;SDS011;8373;48.110;11.522;2023-02-01T08:13:22;20.00;;;7.17;;
16520;SDS011;8373;48.110;11.522;2023-02-01T08:15:49;21.23;;;6.60;;
16520;SDS011;8373;48.110;11.522;2023-02-01T08:18:16;16.27;;;7.10;;
16520;SDS011;8373;48.110;11.522;2023-02-01T08:20:44;13.33;;;6.60;;
16520;SDS011;8373;48.110;11.522;2023-02-01T08:23:14;18.53;;;6.30;;
16520;SDS011;8373;48.110;11.522;2023-02-01T08:25:41;23.90;;;7.03;;
16520;SDS011;8373;48.110;11.522;2023-02-01T08:28:08;15.13;;;6.57;;
16520;SDS011;8373;48.110;11.522;2023-02-01T08:30:36;14.03;;;6.33;;
16520;SDS011;8373;48.110;11.522;2023-02-01T08:33:03;12.43;;;5.70;;
16520;SDS011;8373;48.110;11.522;2023-02-01T08:35:32;20.30;;;6.43;;
16520;SDS011;8373;48.110;11.522;2023-02-01T08:38:01;18.70;;;7.70;;
16520;SDS011;8373;48.110;11.522;2023-02-01T08:40:29;18.83;;;7.60;;
16520;SDS011;8373;48.110;11.522;2023-02-01T08:42:57;15.67;;;6.53;;
16520;SDS011;8373;48.110;11.522;2023-02-01T08:45:26;15.20;;;6.37;;
16520;SDS011;8373;48.110;11.522;2023-02-01T08:47:55;14.90;;;6.70;;
16520;SDS011;8373;48.110;11.522;2023-02-01T08:50:22;15.33;;;6.77;;
16520;SDS011;8373;48.110;11.522;2023-02-01T08:52:50;16.67;;;6.77;;
16520;SDS011;8373;48.110;11.522;2023-02-01T08:55:17;20.30;;;7.33;;
16520;SDS011;8373;48.110;11.522;2023-02-01T08:57:46;19.13;;;6.50;;
16520;SDS011;8373;48.110;11.522;2023-02-01T09:00:15;11.53;;;6.20;;
16520;SDS011;8373;48.110;11.522;2023-02-01T09:02:43;24.60;;;7.40;;
16520;SDS011;8373;48.110;11.522;2023-02-01T09:05:10;15.10;;;6.47;;
16520;SDS011;8373;48.110;11.522;2023-02-01T09:07:39;10.63;;;5.63;;
16520;SDS011;8373;48.110;11.522;2023-02-01T09:10:06;14.10;;;6.97;;
16520;SDS011;8373;48.110;11.522;2023-02-01T09:12:34;17.27;;;6.80;;
16520;SDS011;8373;48.110;11.522;2023-02-01T09:15:03;14.70;;;6.73;;
16520;SDS011;8373;48.110;11.522;2023-02-01T09:17:32;15.87;;;6.20;;
16520;SDS011;8373;48.110;11.522;2023-02-01T09:19:59;15.93;;;7.10;;
16520;SDS011;8373;48.110;11.522;2023-02-01T09:22:26;16.30;;;7.10;;
16520;SDS011;8373;48.110;11.522;2023-02-01T09:24:53;22.03;;;6.40;;
16520;SDS011;8373;48.110;11.522;2023-02-01T09:27:20;16.40;;;7.03;;
16520;SDS011;8373;48.110;11.522;2023-02-01T09:29:48;15.33;;;6.67;;
16520;SDS011;8373;48.110;11.522;2023-02-01T09:32:19;15.77;;;7.13;;
16520;SDS011;8373;48.110;11.522;2023-02-01T09:34:46;16.73;;;6.70;;
16520;SDS011;8373;48.110;11.522;2023-02-01T09:37:13;16.53;;;7.03;;
16520;SDS011;8373;48.110;11.522;2023-02-01T09:39:40;19.17;;;6.53;;
16520;SDS011;8373;48.110;11.522;2023-02-01T09:42:12;26.73;;;7.40;;
16520;SDS011;8373;48.110;11.522;2023-02-01T09:44:50;14.60;;;6.43;;
16520;SDS011;8373;48.110;11.522;2023-02-01T09:47:32;13.30;;;6.53;;
16520;SDS011;8373;48.110;11.522;2023-02-01T09:50:02;24.40;;;7.37;;
16520;SDS011;8373;48.110;11.522;2023-02-01T09:52:31;13.57;;;5.60;;
16520;SDS011;8373;48.110;11.522;2023-02-01T09:55:05;19.20;;;6.40;;
16520;SDS011;8373;48.110;11.522;2023-02-01T09:57:44;15.63;;;6.20;;
16520;SDS011;8373;48.110;11.522;2023-02-01T10:00:18;17.87;;;6.30;;
16520;SDS011;8373;48.110;11.522;2023-02-01T10:02:50;20.57;;;6.53;;
16520;SDS011;8373;48.110;11.522;2023-02-01T10:05:24;19.77;;;6.60;;
16520;SDS011;8373;48.110;11.522;2023-02-01T10:08:08;15.80;;;6.43;;
16520;SDS011;8373;48.110;11.522;2023-02-01T10:10:39;14.67;;;7.33;;
16520;SDS011;8373;48.110;11.522;2023-02-01T10:13:24;16.57;;;6.57;;
16520;SDS011;8373;48.110;11.522;2023-02-01T10:16:16;21.03;;;6.10;;
16520;SDS011;8373;48.110;11.522;2023-02-01T10:19:04;13.80;;;6.33;;
16520;SDS011;8373;48.110;11.522;2023-02-01T10:21:54;17.63;;;6.67;;
16520;SDS011;8373;48.110;11.522;2023-02-01T10:24:34;13.27;;;6.37;;
16520;SDS011;8373;48.110;11.522;2023-02-01T10:27:11;13.60;;;6.47;;
16520;SDS011;8373;48.110;11.522;2023-02-01T10:29:40;14.70;;;6.00;;
16520;SDS011;8373;48.110;11.522;2023-02-01T10:32:11;18.93;;;7.10;;
16520;SDS011;8373;48.110;11.522;2023-02-01T10:34:41;27.63;;;7.07;;
16520;SDS011;8373;48.110;11.522;2023-02-01T10:37:13;13.67;;;6.40;;
16520;SDS011;8373;48.110;11.522;2023-02-01T10:39:49;12.77;;;6.03;;
16520;SDS011;8373;48.110;11.522;2023-02-01T10:42:19;13.27;;;6.10;;
16520;SDS011;8373;48.110;11.522;2023-02-01T10:44:49;23.23;;;6.77;;
16520;SDS011;8373;48.110;11.522;2023-02-01T10:47:17;18.33;;;6.60;;
16520;SDS011;8373;48.110;11.522;2023-02-01T10:49:47;16.67;;;6.00;;
16520;SDS011;8373;48.110;11.522;2023-02-01T10:52:31;11.90;;;6.50;;
16520;SDS011;8373;48.110;11.522;2023-02-01T10:58:03;16.97;;;6.83;;
16520;SDS011;8373;48.110;11.522;2023-02-01T11:00:34;23.83;;;7.13;;
16520;SDS011;8373;48.110;11.522;2023-02-01T11:03:22;64.90;;;8.70;;
16520;SDS011;8373;48.110;11.522;2023-02-01T11:06:09;19.63;;;6.63;;
16520;SDS011;8373;48.110;11.522;2023-02-01T11:08:43;19.10;;;6.70;;
16520;SDS011;8373;48.110;11.522;2023-02-01T11:11:13;25.37;;;6.80;;
16520;SDS011;8373;48.110;11.522;2023-02-01T11:13:41;16.67;;;8.20;;
16520;SDS011;8373;48.110;11.522;2023-02-01T11:16:11;22.97;;;7.00;;
16520;SDS011;8373;48.110;11.522;2023-02-01T11:18:40;20.23;;;7.63;;
16520;SDS011;8373;48.110;11.522;2023-02-01T11:21:09;14.60;;;7.50;;
16520;SDS011;8373;48.110;11.522;2023-02-01T11:23:41;17.30;;;7.10;;
16520;SDS011;8373;48.110;11.522;2023-02-01T11:26:12;19.43;;;7.07;;
16520;SDS011;8373;48.110;11.522;2023-02-01T11:28:44;19.37;;;8.00;;
16520;SDS011;8373;48.110;11.522;2023-02-01T11:31:19;18.80;;;6.70;;
16520;SDS011;8373;48.110;11.522;2023-02-01T11:33:48;20.10;;;5.83;;
16520;SDS011;8373;48.110;11.522;2023-02-01T11:36:20;18.37;;;7.33;;
16520;SDS011;8373;48.110;11.522;2023-02-01T11:38:52;17.57;;;7.63;;
16520;SDS011;8373;48.110;11.522;2023-02-01T11:41:32;19.93;;;7.90;;
16520;SDS011;8373;48.110;11.522;2023-02-01T11:44:01;18.50;;;6.83;;
16520;SDS011;8373;48.110;11.522;2023-02-01T11:46:42;19.63;;;7.20;;
16520;SDS011;8373;48.110;11.522;2023-02-01T11:49:19;19.77;;;7.20;;
16520;SDS011;8373;48.110;11.522;2023-02-01T11:52:00;20.73;;;7.97;;
16520;SDS011;8373;48.110;11.522;2023-02-01T11:54:40;20.83;;;7.33;;
16520;SDS011;8373;48.110;11.522;2023-02-01T11:57:23;15.77;;;7.37;;
16520;SDS011;8373;48.110;11.522;2023-02-01T12:00:12;16.93;;;7.00;;
16520;SDS011;8373;48.110;11.522;2023-02-01T12:03:00;18.63;;;7.50;;
16520;SDS011;8373;48.110;11.522;2023-02-01T12:05:42;21.30;;;8.23;;
16520;SDS011;8373;48.110;11.522;2023-02-01T12:08:25;15.60;;;7.50;;
16520;SDS011;8373;48.110;11.522;2023-02-01T12:11:13;28.10;;;7.80;;
16520;SDS011;8373;48.110;11.522;2023-02-01T12:13:59;24.93;;;9.43;;
16520;SDS011;8373;48.110;11.522;2023-02-01T12:16:37;15.40;;;7.87;;
16520;SDS011;8373;48.110;11.522;2023-02-01T12:22:22;18.57;;;7.20;;
16520;SDS011;8373;48.110;11.522;2023-02-01T12:25:09;15.83;;;6.67;;
16520;SDS011;8373;48.110;11.522;2023-02-01T12:28:00;23.60;;;7.67;;
16520;SDS011;8373;48.110;11.522;2023-02-01T12:30:52;22.53;;;7.10;;
16520;SDS011;8373;48.110;11.522;2023-02-01T12:33:45;24.23;;;7.47;;
16520;SDS011;8373;48.110;11.522;2023-02-01T12:36:23;19.37;;;7.30;;
16520;SDS011;8373;48.110;11.522;2023-02-01T12:39:00;18.57;;;7.13;;
16520;SDS011;8373;48.110;11.522;2023-02-01T12:44:25;17.67;;;7.40;;
16520;SDS011;8373;48.110;11.522;2023-02-01T12:46:58;17.50;;;6.90;;
16520;SDS011;8373;48.110;11.522;2023-02-01T12:49:33;17.90;;;6.80;;
16520;SDS011;8373;48.110;11.522;2023-02-01T12:52:10;18.33;;;6.97;;
16520;SDS011;8373;48.110;11.522;2023-02-01T12:54:42;22.67;;;6.90;;
16520;SDS011;8373;48.110;11.522;2023-02-01T12:57:16;26.90;;;7.70;;
16520;SDS011;8373;48.110;11.522;2023-02-01T12:59:49;17.27;;;5.87;;
16520;SDS011;8373;48.110;11.522;2023-02-01T13:02:22;19.43;;;6.40;;
16520;SDS011;8373;48.110;11.522;2023-02-01T13:04:59;19.73;;;7.60;;
16520;SDS011;8373;48.110;11.522;2023-02-01T13:07:31;23.73;;;6.63;;
16520;SDS011;8373;48.110;11.522;2023-02-01T13:10:05;25.40;;;7.23;;
16520;SDS011;8373;48.110;11.522;2023-02-01T13:12:44;15.27;;;6.33;;
16520;SDS011;8373;48.110;11.522;2023-02-01T13:15:19;22.70;;;7.70;;
16520;SDS011;8373;48.110;11.522;2023-02-01T13:17:49;17.97;;;7.20;;
16520;SDS011;8373;48.110;11.522;2023-02-01T13:20:20;30.00;;;7.57;;
16520;SDS011;8373;48.110;11.522;2023-02-01T13:22:50;25.43;;;7.70;;
16520;SDS011;8373;48.110;11.522;2023-02-01T13:25:26;19.53;;;7.53;;
16520;SDS011;8373;48.110;11.522;2023-02-01T13:28:00;16.03;;;7.07;;
16520;SDS011;8373;48.110;11.522;2023-02-01T13:30:36;30.23;;;7.47;;
16520;SDS011;8373;48.110;11.522;2023-02-01T13:33:17;20.10;;;7.33;;
16520;SDS011;8373;48.110;11.522;2023-02-01T13:36:05;17.37;;;6.67;;
16520;SDS011;8373;48.110;11.522;2023-02-01T13:41:58;24.43;;;6.63;;
16520;SDS011;8373;48.110;11.522;2023-02-01T13:44:30;15.37;;;6.40;;
16520;SDS011;8373;48.110;11.522;2023-02-01T13:47:03;24.73;;;7.97;;
16520;SDS011;8373;48.110;11.522;2023-02-01T13:49:42;26.93;;;7.90;;
16520;SDS011;8373;48.110;11.522;2023-02-01T13:52:21;23.40;;;7.70;;
16520;SDS011;8373;48.110;11.522;2023-02-01T13:55:13;18.60;;;7.20;;
16520;SDS011;8373;48.110;11.522;2023-02-01T13:57:49;18.00;;;6.37;;
16520;SDS011;8373;48.110;11.522;2023-02-01T14:00:26;14.70;;;5.83;;
16520;SDS011;8373;48.110;11.522;2023-02-01T14:09:11;14.30;;;6.33;;
16520;SDS011;8373;48.110;11.522;2023-02-01T14:11:49;14.97;;;6.57;;
16520;SDS011;8373;48.110;11.522;2023-02-01T14:23:09;13.40;;;5.90;;
16520;SDS011;8373;48.110;11.522;2023-02-01T14:25:39;16.87;;;6.40;;
16520;SDS011;8373;48.110;11.522;2023-02-01T14:28:10;17.27;;;6.60;;
16520;SDS011;8373;48.110;11.522;2023-02-01T14:30:40;28.60;;;7.20;;
16520;SDS011;8373;48.110;11.522;2023-02-01T14:33:18;15.77;;;6.03;;
16520;SDS011;8373;48.110;11.522;2023-02-01T14:36:00;16.07;;;5.70;;
16520;SDS011;8373;48.110;11.522;2023-02-01T14:38:33;14.20;;;5.73;;
16520;SDS011;8373;48.110;11.522;2023-02-01T14:41:13;24.47;;;7.30;;
16520;SDS011;8373;48.110;11.522;2023-02-01T14:47:04;15.20;;;6.20;;
16520;SDS011;8373;48.110;11.522;2023-02-01T14:53:04;18.77;;;5.80;;
16520;SDS011;8373;48.110;11.522;2023-02-01T14:55:42;21.13;;;6.07;;
16520;SDS011;8373;48.110;11.522;2023-02-01T14:58:15;13.33;;;6.70;;
16520;SDS011;8373;48.110;11.522;2023-02-01T15:00:49;18.10;;;6.07;;
16520;SDS011;8373;48.110;11.522;2023-02-01T15:06:25;14.40;;;5.70;;
16520;SDS011;8373;48.110;11.522;2023-02-01T15:08:56;17.07;;;6.77;;
16520;SDS011;8373;48.110;11.522;2023-02-01T15:11:26;18.10;;;7.20;;
16520;SDS011;8373;48.110;11.522;2023-02-01T15:13:53;18.43;;;5.70;;
16520;SDS011;8373;48.110;11.522;2023-02-01T15:16:22;25.83;;;6.10;;
16520;SDS011;8373;48.110;11.522;2023-02-01T15:18:50;13.53;;;6.27;;
16520;SDS011;8373;48.110;11.522;2023-02-01T15:21:43;15.70;;;5.93;;
16520;SDS011;8373;48.110;11.522;2023-02-01T15:24:17;17.10;;;5.40;;
16520;SDS011;8373;48.110;11.522;2023-02-01T15:26:47;18.23;;;5.67;;
16520;SDS011;8373;48.110;11.522;2023-02-01T15:29:14;17.70;;;5.73;;
16520;SDS011;8373;48.110;11.522;2023-02-01T15:31:44;26.27;;;5.90;;
16520;SDS011;8373;48.110;11.522;2023-02-01T15:34:13;19.10;;;6.30;;
16520;SDS011;8373;48.110;11.522;2023-02-01T15:36:43;23.00;;;6.47;;
16520;SDS011;8373;48.110;11.522;2023-02-01T15:39:17;11.27;;;5.47;;